sensor_id;sensor_type;location;lat;lon;timestamp;pressure;altitude;pressure_sealevel;temperature;humidity
22605;BME280;11469;49.024;8.246;2023-04-25T00:00:31;99833.03;;;7.92;100.00
22605;BME280;11469;49.024;8.246;2023-04-25T00:02:57;99821.41;;;7.90;100.00
22605;BME280;11469;49.024;8.246;2023-04-25T00:05:23;99830.16;;;7.89;100.00
22605;BME280;11469;49.024;8.246;2023-04-25T00:07:49;99826.81;;;7.83;100.00
22605;BME280;11469;49.024;8.246;2023-04-25T00:10:15;99828.78;;;7.83;100.00
22605;BME280;11469;49.024;8.246;2023-04-25T00:12:40;99841.38;;;7.77;100.00
22605;BME280;11469;49.024;8.246;2023-04-25T00:15:07;99834.06;;;7.72;100.00
22605;BME280;11469;49.024;8.246;2023-04-25T00:17:33;99843.94;;;7.70;100.00
22605;BME280;11469;49.024;8.246;2023-04-25T00:20:00;99830.34;;;7.68;100.00
22605;BME280;11469;49.024;8.246;2023-04-25T00:22:26;99833.16;;;7.68;100.00
22605;BME280;11469;49.024;8.246;2023-04-25T00:24:51;99832.44;;;7.71;100.00
22605;BME280;11469;49.024;8.246;2023-04-25T00:27:18;99831.72;;;7.74;100.00
22605;BME280;11469;49.024;8.246;2023-04-25T00:29:43;99836.25;;;7.79;100.00
22605;BME280;11469;49.024;8.246;2023-04-25T00:32:09;99831.56;;;7.83;100.00
22605;BME280;11469;49.024;8.246;2023-04-25T00:34:35;99833.19;;;7.84;100.00
22605;BME280;11469;49.024;8.246;2023-04-25T00:37:01;99828.78;;;7.83;100.00
22605;BME280;11469;49.024;8.246;2023-04-25T00:39:27;99830.41;;;7.84;100.00
22605;BME280;11469;49.024;8.246;2023-04-25T00:41:54;99827.72;;;7.87;100.00
22605;BME280;11469;49.024;8.246;2023-04-25T00:44:20;99827.34;;;7.89;100.00
22605;BME280;11469;49.024;8.246;2023-04-25T00:46:47;99823.31;;;7.86;100.00
22605;BME280;11469;49.024;8.246;2023-04-25T00:49:13;99822.84;;;7.84;100.00
22605;BME280;11469;49.024;8.246;2023-04-25T00:51:40;99816.63;;;7.75;100.00
22605;BME280;11469;49.024;8.246;2023-04-25T00:54:06;99814.78;;;7.67;100.00
22605;BME280;11469;49.024;8.246;2023-04-25T00:56:32;99809.47;;;7.62;100.00
22605;BME280;11469;49.024;8.246;2023-04-25T00:58:57;99815.41;;;7.60;100.00
22605;BME280;11469;49.024;8.246;2023-04-25T01:01:23;99805.63;;;7.66;100.00
22605;BME280;11469;49.024;8.246;2023-04-25T01:03:49;99807.13;;;7.64;100.00
22605;BME280;11469;49.024;8.246;2023-04-25T01:06:16;99817.13;;;7.65;100.00
22605;BME280;11469;49.024;8.246;2023-04-25T01:08:41;99813.06;;;7.62;100.00
22605;BME280;11469;49.024;8.246;2023-04-25T01:11:07;99807.03;;;7.60;100.00
22605;BME280;11469;49.024;8.246;2023-04-25T01:13:33;99798.56;;;7.57;100.00
22605;BME280;11469;49.024;8.246;2023-04-25T01:16:00;99817.09;;;7.49;100.00
22605;BME280;11469;49.024;8.246;2023-04-25T01:18:26;99812.94;;;7.43;100.00
22605;BME280;11469;49.024;8.246;2023-04-25T01:20:52;99816.22;;;7.33;100.00
22605;BME280;11469;49.024;8.246;2023-04-25T01:23:22;99816.16;;;7.17;100.00
22605;BME280;11469;49.024;8.246;2023-04-25T01:25:49;99815.47;;;7.20;100.00
22605;BME280;11469;49.024;8.246;2023-04-25T01:28:14;99820.69;;;7.22;100.00
22605;BME280;11469;49.024;8.246;2023-04-25T01:30:40;99815.91;;;7.22;100.00
22605;BME280;11469;49.024;8.246;2023-04-25T01:33:07;99821.50;;;7.22;100.00
22605;BME280;11469;49.024;8.246;2023-04-25T01:35:33;99812.41;;;7.25;100.00
22605;BME280;11469;49.024;8.246;2023-04-25T01:37:59;99816.47;;;7.28;100.00
22605;BME280;11469;49.024;8.246;2023-04-25T01:40:24;99819.38;;;7.31;100.00
22605;BME280;11469;49.024;8.246;2023-04-25T01:42:50;99812.38;;;7.38;100.00
22605;BME280;11469;49.024;8.246;2023-04-25T01:45:16;99808.31;;;7.35;100.00
22605;BME280;11469;49.024;8.246;2023-04-25T01:47:42;99815.16;;;7.38;100.00
22605;BME280;11469;49.024;8.246;2023-04-25T01:50:09;99814.47;;;7.41;100.00
22605;BME280;11469;49.024;8.246;2023-04-25T01:52:35;99816.09;;;7.42;100.00
22605;BME280;11469;49.024;8.246;2023-04-25T01:55:01;99819.34;;;7.44;100.00
22605;BME280;11469;49.024;8.246;2023-04-25T01:57:27;99821.22;;;7.40;100.00
22605;BME280;11469;49.024;8.246;2023-04-25T01:59:59;99814.22;;;7.46;100.00
22605;BME280;11469;49.024;8.246;2023-04-25T02:02:25;99817.47;;;7.48;100.00
22605;BME280;11469;49.024;8.246;2023-04-25T02:04:51;99810.72;;;7.49;100.00
22605;BME280;11469;49.024;8.246;2023-04-25T02:07:16;99808.75;;;7.49;100.00
22605;BME280;11469;49.024;8.246;2023-04-25T02:09:42;99816.84;;;7.54;100.00
22605;BME280;11469;49.024;8.246;2023-04-25T02:12:09;99809.72;;;7.57;100.00
22605;BME280;11469;49.024;8.246;2023-04-25T02:14:35;99811.81;;;7.60;100.00
22605;BME280;11469;49.024;8.246;2023-04-25T02:17:01;99808.66;;;7.61;100.00
22605;BME280;11469;49.024;8.246;2023-04-25T02:19:26;99807.59;;;7.66;100.00
22605;BME280;11469;49.024;8.246;2023-04-25T02:21:51;99800.03;;;7.66;100.00
22605;BME280;11469;49.024;8.246;2023-04-25T02:24:17;99808.75;;;7.65;100.00
22605;BME280;11469;49.024;8.246;2023-04-25T02:26:42;99808.41;;;7.66;100.00
22605;BME280;11469;49.024;8.246;2023-04-25T02:29:09;99800.84;;;7.67;100.00
22605;BME280;11469;49.024;8.246;2023-04-25T02:31:34;99792.13;;;7.69;100.00
22605;BME280;11469;49.024;8.246;2023-04-25T02:33:59;99788.97;;;7.70;100.00
22605;BME280;11469;49.024;8.246;2023-04-25T02:36:25;99788.63;;;7.72;100.00
22605;BME280;11469;49.024;8.246;2023-04-25T02:38:51;99784.56;;;7.69;100.00
22605;BME280;11469;49.024;8.246;2023-04-25T02:41:17;99778.19;;;7.69;100.00
22605;BME280;11469;49.024;8.246;2023-04-25T02:43:43;99794.19;;;7.72;100.00
22605;BME280;11469;49.024;8.246;2023-04-25T02:46:08;99787.09;;;7.74;100.00
22605;BME280;11469;49.024;8.246;2023-04-25T02:48:33;99786.75;;;7.76;100.00
22605;BME280;11469;49.024;8.246;2023-04-25T02:50:59;99786.75;;;7.76;100.00
22605;BME280;11469;49.024;8.246;2023-04-25T02:53:24;99781.97;;;7.76;100.00
22605;BME280;11469;49.024;8.246;2023-04-25T02:55:50;99785.13;;;7.75;100.00
22605;BME280;11469;49.024;8.246;2023-04-25T02:58:17;99780.00;;;7.77;100.00
22605;BME280;11469;49.024;8.246;2023-04-25T03:00:42;99783.13;;;7.75;100.00
22605;BME280;11469;49.024;8.246;2023-04-25T03:03:08;99784.31;;;7.74;100.00
22605;BME280;11469;49.024;8.246;2023-04-25T03:05:33;99792.22;;;7.72;100.00
22605;BME280;11469;49.024;8.246;2023-04-25T03:07:59;99800.13;;;7.70;100.00
22605;BME280;11469;49.024;8.246;2023-04-25T03:10:24;99802.56;;;7.72;100.00
22605;BME280;11469;49.024;8.246;2023-04-25T03:12:49;99797.00;;;7.72;100.00
22605;BME280;11469;49.024;8.246;2023-04-25T03:15:15;99786.63;;;7.72;100.00
22605;BME280;11469;49.024;8.246;2023-04-25T03:17:41;99795.00;;;7.72;100.00
22605;BME280;11469;49.024;8.246;2023-04-25T03:20:07;99783.50;;;7.74;100.00
22605;BME280;11469;49.024;8.246;2023-04-25T03:22:33;99782.69;;;7.73;100.00
22605;BME280;11469;49.024;8.246;2023-04-25T03:24:59;99780.72;;;7.74;100.00
22605;BME280;11469;49.024;8.246;2023-04-25T03:27:24;99781.06;;;7.72;100.00
22605;BME280;11469;49.024;8.246;2023-04-25T03:29:49;99781.06;;;7.72;100.00
22605;BME280;11469;49.024;8.246;2023-04-25T03:32:15;99779.91;;;7.73;100.00
22605;BME280;11469;49.024;8.246;2023-04-25T03:34:40;99783.03;;;7.72;100.00
22605;BME280;11469;49.024;8.246;2023-04-25T03:37:06;99770.25;;;7.71;100.00
22605;BME280;11469;49.024;8.246;2023-04-25T03:39:31;99773.06;;;7.71;100.00
22605;BME280;11469;49.024;8.246;2023-04-25T03:41:57;99769.44;;;7.70;100.00
22605;BME280;11469;49.024;8.246;2023-04-25T03:44:22;99773.06;;;7.71;100.00
22605;BME280;11469;49.024;8.246;2023-04-25T03:46:49;99769.81;;;7.69;100.00
22605;BME280;11469;49.024;8.246;2023-04-25T03:49:16;99769.81;;;7.69;100.00
22605;BME280;11469;49.024;8.246;2023-04-25T03:51:41;99775.03;;;7.70;100.00
22605;BME280;11469;49.024;8.246;2023-04-25T03:54:06;99778.63;;;7.71;100.00
22605;BME280;11469;49.024;8.246;2023-04-25T03:56:32;99783.03;;;7.72;100.00
22605;BME280;11469;49.024;8.246;2023-04-25T03:58:58;99780.59;;;7.70;100.00
22605;BME280;11469;49.024;8.246;2023-04-25T04:01:23;99776.19;;;7.69;100.00
22605;BME280;11469;49.024;8.246;2023-04-25T04:03:48;99783.41;;;7.70;100.00
22605;BME280;11469;49.024;8.246;2023-04-25T04:06:14;99783.84;;;7.72;100.00
22605;BME280;11469;49.024;8.246;2023-04-25T04:08:40;99772.59;;;7.69;100.00
22605;BME280;11469;49.024;8.246;2023-04-25T04:11:05;99781.78;;;7.69;100.00
22605;BME280;11469;49.024;8.246;2023-04-25T04:13:30;99768.63;;;7.70;100.00
22605;BME280;11469;49.024;8.246;2023-04-25T04:15:56;99767.94;;;7.73;100.00
22605;BME280;11469;49.024;8.246;2023-04-25T04:18:22;99770.72;;;7.73;100.00
22605;BME280;11469;49.024;8.246;2023-04-25T04:20:47;99770.72;;;7.73;100.00
22605;BME280;11469;49.024;8.246;2023-04-25T04:23:13;99770.72;;;7.73;100.00
22605;BME280;11469;49.024;8.246;2023-04-25T04:25:39;99774.78;;;7.75;100.00
22605;BME280;11469;49.024;8.246;2023-04-25T04:28:05;99768.38;;;7.75;100.00
22605;BME280;11469;49.024;8.246;2023-04-25T04:30:31;99774.41;;;7.77;100.00
22605;BME280;11469;49.024;8.246;2023-04-25T04:32:58;99770.09;;;7.79;100.00
22605;BME280;11469;49.024;8.246;2023-04-25T04:35:24;99769.28;;;7.79;100.00
22605;BME280;11469;49.024;8.246;2023-04-25T04:37:50;99776.94;;;7.82;100.00
22605;BME280;11469;49.024;8.246;2023-04-25T04:40:15;99771.72;;;7.80;100.00
22605;BME280;11469;49.024;8.246;2023-04-25T04:42:44;99776.75;;;7.75;100.00
22605;BME280;11469;49.024;8.246;2023-04-25T04:45:13;99782.31;;;7.75;100.00
22605;BME280;11469;49.024;8.246;2023-04-25T04:47:39;99779.63;;;7.78;100.00
22605;BME280;11469;49.024;8.246;2023-04-25T04:50:09;99777.19;;;7.77;100.00
22605;BME280;11469;49.024;8.246;2023-04-25T04:52:35;99783.22;;;7.79;100.00
22605;BME280;11469;49.024;8.246;2023-04-25T04:55:02;99778.38;;;7.76;100.00
22605;BME280;11469;49.024;8.246;2023-04-25T04:57:28;99786.84;;;7.79;100.00
22605;BME280;11469;49.024;8.246;2023-04-25T04:59:54;99782.88;;;7.80;100.00
22605;BME280;11469;49.024;8.246;2023-04-25T05:02:19;99785.31;;;7.82;100.00
22605;BME280;11469;49.024;8.246;2023-04-25T05:04:45;99787.75;;;7.83;100.00
22605;BME280;11469;49.024;8.246;2023-04-25T05:07:10;99791.34;;;7.84;100.00
22605;BME280;11469;49.024;8.246;2023-04-25T05:09:36;99794.59;;;7.86;100.00
22605;BME280;11469;49.024;8.246;2023-04-25T05:12:01;99791.44;;;7.87;100.00
22605;BME280;11469;49.024;8.246;2023-04-25T05:14:27;99793.50;;;7.90;100.00
22605;BME280;11469;49.024;8.246;2023-04-25T05:16:52;99791.28;;;7.96;100.00
22605;BME280;11469;49.024;8.246;2023-04-25T05:19:18;99801.63;;;7.95;100.00
22605;BME280;11469;49.024;8.246;2023-04-25T05:21:43;99792.69;;;7.90;100.00
22605;BME280;11469;49.024;8.246;2023-04-25T05:24:09;99798.13;;;7.98;100.00
22605;BME280;11469;49.024;8.246;2023-04-25T05:26:34;99795.84;;;8.04;100.00
22605;BME280;11469;49.024;8.246;2023-04-25T05:29:00;99792.06;;;8.12;100.00
22605;BME280;11469;49.024;8.246;2023-04-25T05:31:25;99801.25;;;8.13;100.00
22605;BME280;11469;49.024;8.246;2023-04-25T05:33:51;99791.81;;;8.17;100.00
22605;BME280;11469;49.024;8.246;2023-04-25T05:36:18;99798.38;;;8.25;100.00
22605;BME280;11469;49.024;8.246;2023-04-25T05:38:44;99798.47;;;8.28;100.00
22605;BME280;11469;49.024;8.246;2023-04-25T05:41:09;99802.88;;;8.29;100.00
22605;BME280;11469;49.024;8.246;2023-04-25T05:43:34;99812.06;;;8.30;100.00
22605;BME280;11469;49.024;8.246;2023-04-25T05:46:00;99815.22;;;8.28;100.00
22605;BME280;11469;49.024;8.246;2023-04-25T05:48:25;99807.22;;;8.27;100.00
22605;BME280;11469;49.024;8.246;2023-04-25T05:50:51;99828.13;;;8.33;100.00
22605;BME280;11469;49.024;8.246;2023-04-25T05:53:17;99815.88;;;8.38;100.00
22605;BME280;11469;49.024;8.246;2023-04-25T05:55:42;99817.59;;;8.42;100.00
22605;BME280;11469;49.024;8.246;2023-04-25T05:58:08;99820.84;;;8.44;100.00
22605;BME280;11469;49.024;8.246;2023-04-25T06:00:33;99822.00;;;8.43;100.00
22605;BME280;11469;49.024;8.246;2023-04-25T06:02:59;99821.19;;;8.43;100.00
22605;BME280;11469;49.024;8.246;2023-04-25T06:05:24;99825.25;;;8.45;100.00
22605;BME280;11469;49.024;8.246;2023-04-25T06:07:50;99821.66;;;8.45;100.00
22605;BME280;11469;49.024;8.246;2023-04-25T06:10:15;99818.84;;;8.45;100.00
22605;BME280;11469;49.024;8.246;2023-04-25T06:12:41;99831.19;;;8.44;100.00
22605;BME280;11469;49.024;8.246;2023-04-25T06:15:06;99836.31;;;8.42;100.00
22605;BME280;11469;49.024;8.246;2023-04-25T06:17:32;99836.31;;;8.42;100.00
22605;BME280;11469;49.024;8.246;2023-04-25T06:19:58;99825.16;;;8.42;100.00
22605;BME280;11469;49.024;8.246;2023-04-25T06:22:23;99834.00;;;8.44;100.00
22605;BME280;11469;49.024;8.246;2023-04-25T06:24:49;99836.16;;;8.50;100.00
22605;BME280;11469;49.024;8.246;2023-04-25T06:27:14;99837.38;;;8.53;100.00
22605;BME280;11469;49.024;8.246;2023-04-25T06:29:39;99835.34;;;8.50;100.00
22605;BME280;11469;49.024;8.246;2023-04-25T06:32:05;99836.88;;;8.47;100.00
22605;BME280;11469;49.024;8.246;2023-04-25T06:34:30;99848.41;;;8.46;100.00
22605;BME280;11469;49.024;8.246;2023-04-25T06:36:56;99842.50;;;8.51;100.00
22605;BME280;11469;49.024;8.246;2023-04-25T06:39:21;99837.31;;;8.49;100.00
22605;BME280;11469;49.024;8.246;2023-04-25T06:41:48;99845.59;;;8.46;100.00
22605;BME280;11469;49.024;8.246;2023-04-25T06:44:14;99844.00;;;8.45;100.00
22605;BME280;11469;49.024;8.246;2023-04-25T06:46:40;99844.44;;;8.47;100.00
22605;BME280;11469;49.024;8.246;2023-04-25T06:49:06;99849.31;;;8.50;100.00
22605;BME280;11469;49.024;8.246;2023-04-25T06:51:31;99857.22;;;8.48;100.00
22605;BME280;11469;49.024;8.246;2023-04-25T06:53:57;99859.38;;;8.39;100.00
22605;BME280;11469;49.024;8.246;2023-04-25T06:56:22;99857.03;;;8.41;100.00
22605;BME280;11469;49.024;8.246;2023-04-25T06:58:49;99864.84;;;8.51;100.00
22605;BME280;11469;49.024;8.246;2023-04-25T07:01:14;99856.56;;;8.54;100.00
22605;BME280;11469;49.024;8.246;2023-04-25T07:03:39;99851.44;;;8.56;100.00
22605;BME280;11469;49.024;8.246;2023-04-25T07:06:05;99853.59;;;8.63;100.00
22605;BME280;11469;49.024;8.246;2023-04-25T07:08:31;99862.34;;;8.61;100.00
22605;BME280;11469;49.024;8.246;2023-04-25T07:10:56;99861.53;;;8.61;100.00
22605;BME280;11469;49.024;8.246;2023-04-25T07:13:21;99873.97;;;8.63;100.00
22605;BME280;11469;49.024;8.246;2023-04-25T07:15:47;99866.03;;;8.65;100.00
22605;BME280;11469;49.024;8.246;2023-04-25T07:18:13;99869.72;;;8.70;100.00
22605;BME280;11469;49.024;8.246;2023-04-25T07:20:39;99872.16;;;8.71;100.00
22605;BME280;11469;49.024;8.246;2023-04-25T07:23:04;99868.63;;;8.74;100.00
22605;BME280;11469;49.024;8.246;2023-04-25T07:25:29;99868.91;;;8.69;100.00
22605;BME280;11469;49.024;8.246;2023-04-25T07:27:56;99878.47;;;8.68;100.00
22605;BME280;11469;49.024;8.246;2023-04-25T07:30:21;99880.25;;;8.60;100.00
22605;BME280;11469;49.024;8.246;2023-04-25T07:32:47;99876.13;;;8.54;100.00
22605;BME280;11469;49.024;8.246;2023-04-25T07:35:12;99881.53;;;8.63;100.00
22605;BME280;11469;49.024;8.246;2023-04-25T07:37:38;99879.19;;;8.65;100.00
22605;BME280;11469;49.024;8.246;2023-04-25T07:40:04;99878.47;;;8.68;100.00
22605;BME280;11469;49.024;8.246;2023-04-25T07:42:30;99884.13;;;8.72;100.00
22605;BME280;11469;49.024;8.246;2023-04-25T07:44:55;99886.94;;;8.72;100.00
22605;BME280;11469;49.024;8.246;2023-04-25T07:47:21;99892.44;;;8.68;100.00
22605;BME280;11469;49.024;8.246;2023-04-25T07:49:46;99898.84;;;8.69;100.00
22605;BME280;11469;49.024;8.246;2023-04-25T07:52:12;99891.72;;;8.71;100.00
22605;BME280;11469;49.024;8.246;2023-04-25T07:54:37;99901.25;;;8.70;100.00
22605;BME280;11469;49.024;8.246;2023-04-25T07:57:03;99907.31;;;8.72;100.00
22605;BME280;11469;49.024;8.246;2023-04-25T07:59:28;99895.59;;;8.82;100.00
22605;BME280;11469;49.024;8.246;2023-04-25T08:01:53;99914.50;;;8.89;100.00
22605;BME280;11469;49.024;8.246;2023-04-25T08:04:19;99911.44;;;8.94;100.00
22605;BME280;11469;49.024;8.246;2023-04-25T08:06:44;99915.09;;;8.98;100.00
22605;BME280;11469;49.024;8.246;2023-04-25T08:09:10;99916.38;;;9.01;100.00
22605;BME280;11469;49.024;8.246;2023-04-25T08:11:36;99923.94;;;9.00;100.00
22605;BME280;11469;49.024;8.246;2023-04-25T08:14:02;99928.56;;;8.92;100.00
22605;BME280;11469;49.024;8.246;2023-04-25T08:16:28;99933.72;;;8.90;100.00
22605;BME280;11469;49.024;8.246;2023-04-25T08:18:53;99938.66;;;8.81;100.00
22605;BME280;11469;49.024;8.246;2023-04-25T08:21:19;99939.66;;;8.89;100.00
22605;BME280;11469;49.024;8.246;2023-04-25T08:23:45;99946.06;;;8.89;100.00
22605;BME280;11469;49.024;8.246;2023-04-25T08:26:10;99950.38;;;8.87;100.00
22605;BME280;11469;49.024;8.246;2023-04-25T08:28:36;99951.38;;;8.94;100.00
22605;BME280;11469;49.024;8.246;2023-04-25T08:31:01;99956.97;;;8.94;100.00
22605;BME280;11469;49.024;8.246;2023-04-25T08:33:27;99961.75;;;8.94;100.00
22605;BME280;11469;49.024;8.246;2023-04-25T08:35:52;99967.50;;;9.01;100.00
22605;BME280;11469;49.024;8.246;2023-04-25T08:38:18;99968.28;;;9.17;100.00
22605;BME280;11469;49.024;8.246;2023-04-25T08:40:44;99968.47;;;9.09;100.00
22605;BME280;11469;49.024;8.246;2023-04-25T08:43:13;99972.72;;;9.18;100.00
22605;BME280;11469;49.024;8.246;2023-04-25T08:45:40;99981.56;;;9.05;100.00
22605;BME280;11469;49.024;8.246;2023-04-25T08:48:10;99983.63;;;9.08;100.00
22605;BME280;11469;49.024;8.246;2023-04-25T08:50:40;99980.19;;;9.14;100.00
22605;BME280;11469;49.024;8.246;2023-04-25T08:53:07;99984.34;;;9.20;100.00
22605;BME280;11469;49.024;8.246;2023-04-25T08:55:33;99976.22;;;9.15;100.00
22605;BME280;11469;49.024;8.246;2023-04-25T08:58:00;99985.34;;;9.28;100.00
22605;BME280;11469;49.024;8.246;2023-04-25T09:00:26;99991.28;;;9.26;100.00
22605;BME280;11469;49.024;8.246;2023-04-25T09:02:52;99991.75;;;9.28;100.00
22605;BME280;11469;49.024;8.246;2023-04-25T09:05:18;99991.41;;;9.49;100.00
22605;BME280;11469;49.024;8.246;2023-04-25T09:07:43;99999.53;;;9.54;100.00
22605;BME280;11469;49.024;8.246;2023-04-25T09:10:09;100003.47;;;9.69;100.00
22605;BME280;11469;49.024;8.246;2023-04-25T09:12:35;100016.97;;;9.83;100.00
22605;BME280;11469;49.024;8.246;2023-04-25T09:15:11;100013.72;;;9.81;100.00
22605;BME280;11469;49.024;8.246;2023-04-25T09:17:36;100022.28;;;9.88;100.00
22605;BME280;11469;49.024;8.246;2023-04-25T09:20:09;100019.97;;;9.93;100.00
22605;BME280;11469;49.024;8.246;2023-04-25T09:22:36;100026.53;;;10.01;100.00
22605;BME280;11469;49.024;8.246;2023-04-25T09:25:12;100035.09;;;9.89;100.00
22605;BME280;11469;49.024;8.246;2023-04-25T09:27:50;100033.47;;;9.88;100.00
22605;BME280;11469;49.024;8.246;2023-04-25T09:30:17;100038.03;;;9.77;100.00
22605;BME280;11469;49.024;8.246;2023-04-25T09:32:43;100044.06;;;9.79;100.00
22605;BME280;11469;49.024;8.246;2023-04-25T09:35:09;100045.53;;;9.73;100.00
22605;BME280;11469;49.024;8.246;2023-04-25T09:37:34;100052.28;;;9.72;100.00
22605;BME280;11469;49.024;8.246;2023-04-25T09:40:05;100053.09;;;9.72;100.00
22605;BME280;11469;49.024;8.246;2023-04-25T09:42:31;100066.56;;;9.67;100.00
22605;BME280;11469;49.024;8.246;2023-04-25T09:44:58;100063.25;;;9.45;100.00
22605;BME280;11469;49.024;8.246;2023-04-25T09:47:25;100072.66;;;9.37;100.00
22605;BME280;11469;49.024;8.246;2023-04-25T09:49:51;100076.16;;;9.18;100.00
22605;BME280;11469;49.024;8.246;2023-04-25T09:52:21;100080.41;;;9.12;100.00
22605;BME280;11469;49.024;8.246;2023-04-25T09:54:48;100075.53;;;9.09;100.00
22605;BME280;11469;49.024;8.246;2023-04-25T09:57:24;100090.66;;;9.08;100.00
22605;BME280;11469;49.024;8.246;2023-04-25T09:59:53;100094.28;;;8.93;100.00
22605;BME280;11469;49.024;8.246;2023-04-25T10:02:28;100098.06;;;9.01;100.00
22605;BME280;11469;49.024;8.246;2023-04-25T10:04:55;100097.34;;;9.04;100.00
22605;BME280;11469;49.024;8.246;2023-04-25T10:07:23;100090.22;;;9.06;100.00
22605;BME280;11469;49.024;8.246;2023-04-25T10:10:01;100099.22;;;8.99;100.00
22605;BME280;11469;49.024;8.246;2023-04-25T10:12:29;100098.34;;;8.95;100.00
22605;BME280;11469;49.024;8.246;2023-04-25T10:14:57;100100.28;;;8.79;100.00
22605;BME280;11469;49.024;8.246;2023-04-25T10:17:23;100104.59;;;8.77;100.00
22605;BME280;11469;49.024;8.246;2023-04-25T10:19:48;100105.97;;;8.83;100.00
22605;BME280;11469;49.024;8.246;2023-04-25T10:22:18;100110.03;;;8.85;100.00
22605;BME280;11469;49.024;8.246;2023-04-25T10:24:46;100113.19;;;8.84;100.00
22605;BME280;11469;49.024;8.246;2023-04-25T10:27:12;100121.00;;;8.78;100.00
22605;BME280;11469;49.024;8.246;2023-04-25T10:29:38;100120.91;;;8.75;100.00
22605;BME280;11469;49.024;8.246;2023-04-25T10:32:04;100138.50;;;8.75;100.00
22605;BME280;11469;49.024;8.246;2023-04-25T10:34:39;100139.75;;;8.78;100.00
22605;BME280;11469;49.024;8.246;2023-04-25T10:37:05;100134.88;;;8.75;100.00
22605;BME280;11469;49.024;8.246;2023-04-25T10:39:33;100130.22;;;8.79;100.00
22605;BME280;11469;49.024;8.246;2023-04-25T10:42:01;100142.66;;;8.81;100.00
22605;BME280;11469;49.024;8.246;2023-04-25T10:44:29;100141.28;;;8.75;100.00
22605;BME280;11469;49.024;8.246;2023-04-25T10:46:56;100140.00;;;8.73;100.00
22605;BME280;11469;49.024;8.246;2023-04-25T10:52:27;100145.81;;;8.80;100.00
22605;BME280;11469;49.024;8.246;2023-04-25T10:54:56;100146.00;;;8.87;100.00
22605;BME280;11469;49.024;8.246;2023-04-25T10:57:42;100142.25;;;8.95;100.00
22605;BME280;11469;49.024;8.246;2023-04-25T11:00:20;100149.09;;;8.97;100.00
22605;BME280;11469;49.024;8.246;2023-04-25T11:02:57;100143.44;;;9.10;100.00
22605;BME280;11469;49.024;8.246;2023-04-25T11:05:30;100139.09;;;9.12;100.00
22605;BME280;11469;49.024;8.246;2023-04-25T11:07:57;100150.94;;;9.21;100.00
22605;BME280;11469;49.024;8.246;2023-04-25T11:10:30;100152.56;;;9.22;100.00
22605;BME280;11469;49.024;8.246;2023-04-25T11:12:57;100152.94;;;9.21;100.00
22605;BME280;11469;49.024;8.246;2023-04-25T11:15:23;100157.97;;;9.15;100.00
22605;BME280;11469;49.024;8.246;2023-04-25T11:17:53;100159.13;;;9.14;100.00
22605;BME280;11469;49.024;8.246;2023-04-25T11:20:18;100163.41;;;9.24;100.00
22605;BME280;11469;49.024;8.246;2023-04-25T11:22:45;100156.19;;;9.23;100.00
22605;BME280;11469;49.024;8.246;2023-04-25T11:25:12;100161.06;;;9.26;100.00
22605;BME280;11469;49.024;8.246;2023-04-25T11:27:52;100160.59;;;9.24;100.00
22605;BME280;11469;49.024;8.246;2023-04-25T11:30:20;100161.31;;;9.21;100.00
22605;BME280;11469;49.024;8.246;2023-04-25T11:32:46;100168.53;;;9.22;100.00
22605;BME280;11469;49.024;8.246;2023-04-25T11:35:12;100158.31;;;9.14;100.00
22605;BME280;11469;49.024;8.246;2023-04-25T11:37:39;100171.13;;;9.15;100.00
22605;BME280;11469;49.024;8.246;2023-04-25T11:40:06;100183.72;;;8.93;100.00
22605;BME280;11469;49.024;8.246;2023-04-25T11:42:32;100185.69;;;8.92;100.00
22605;BME280;11469;49.024;8.246;2023-04-25T11:44:58;100184.69;;;8.85;100.00
22605;BME280;11469;49.024;8.246;2023-04-25T11:47:29;100191.69;;;8.79;100.00
22605;BME280;11469;49.024;8.246;2023-04-25T11:49:54;100188.19;;;8.82;100.00
22605;BME280;11469;49.024;8.246;2023-04-25T11:52:20;100192.72;;;8.86;100.00
22605;BME280;11469;49.024;8.246;2023-04-25T11:54:45;100192.56;;;8.95;100.00
22605;BME280;11469;49.024;8.246;2023-04-25T11:57:11;100198.88;;;9.08;100.00
22605;BME280;11469;49.024;8.246;2023-04-25T11:59:37;100203.16;;;9.17;100.00
22605;BME280;11469;49.024;8.246;2023-04-25T12:02:02;100189.72;;;9.23;100.00
22605;BME280;11469;49.024;8.246;2023-04-25T12:04:30;100191.56;;;9.31;100.00
22605;BME280;11469;49.024;8.246;2023-04-25T12:06:56;100185.09;;;9.43;100.00
22605;BME280;11469;49.024;8.246;2023-04-25T12:09:30;100201.75;;;9.55;100.00
22605;BME280;11469;49.024;8.246;2023-04-25T12:11:58;100192.56;;;9.54;100.00
22605;BME280;11469;49.024;8.246;2023-04-25T12:14:26;100191.75;;;9.70;100.00
22605;BME280;11469;49.024;8.246;2023-04-25T12:16:54;100192.56;;;9.86;100.00
22605;BME280;11469;49.024;8.246;2023-04-25T12:19:21;100184.06;;;9.98;100.00
22605;BME280;11469;49.024;8.246;2023-04-25T12:21:47;100179.44;;;10.21;100.00
22605;BME280;11469;49.024;8.246;2023-04-25T12:24:15;100176.91;;;10.32;100.00
22605;BME280;11469;49.024;8.246;2023-04-25T12:26:58;100176.53;;;10.34;100.00
22605;BME280;11469;49.024;8.246;2023-04-25T12:29:26;100171.25;;;10.67;100.00
22605;BME280;11469;49.024;8.246;2023-04-25T12:31:52;100181.28;;;10.87;100.00
22605;BME280;11469;49.024;8.246;2023-04-25T12:34:19;100182.03;;;10.84;100.00
22605;BME280;11469;49.024;8.246;2023-04-25T12:36:44;100179.91;;;10.78;100.00
22605;BME280;11469;49.024;8.246;2023-04-25T12:39:17;100184.88;;;10.88;100.00
22605;BME280;11469;49.024;8.246;2023-04-25T12:41:43;100191.09;;;10.97;98.46
22605;BME280;11469;49.024;8.246;2023-04-25T12:44:09;100185.28;;;10.86;98.71
22605;BME280;11469;49.024;8.246;2023-04-25T12:46:35;100179.69;;;10.86;94.61
22605;BME280;11469;49.024;8.246;2023-04-25T12:49:00;100192.94;;;10.89;100.00
22605;BME280;11469;49.024;8.246;2023-04-25T12:51:26;100184.91;;;11.07;98.41
22605;BME280;11469;49.024;8.246;2023-04-25T12:53:53;100190.66;;;10.95;92.89
22605;BME280;11469;49.024;8.246;2023-04-25T12:56:18;100187.78;;;11.11;95.59